Schneifelwetter: Wetterstation Hallschlag, 537 m . NN
Wetterdaten: Sonntag, 05.06.2011
Datum Zeit Temp. A. Feuchte A. Luftdruck Regen Wind Richtung Richtung Sonnenschein Helligkeit T Regen Taupunkt Windchill
05.06.2011 00:00 16,2 C 85 % 1012 hPa 0,0 l/m 8,1 km/h (2 Bft) O 80 0 min 0 lux 0,00 min 13,7 C 15,3 C
05.06.2011 00:16 16,0 C 85 % 1012 hPa 0,0 l/m 9,6 km/h (2 Bft) O 80 0 min 0 lux 0,00 min 13,5 C 14,4 C
05.06.2011 00:31 15,9 C 86 % 1012 hPa 0,0 l/m 11,7 km/h (2 Bft) O22.5 80 0 min 0 lux 0,00 min 13,6 C 13,4 C
05.06.2011 00:46 15,8 C 87 % 1012 hPa 0,0 l/m 15,3 km/h (3 Bft) O-NO22.5 75 0 min 0 lux 0,00 min 13,6 C 12,1 C
05.06.2011 01:01 15,8 C 87 % 1012 hPa 0,0 l/m 13,8 km/h (3 Bft) O22.5 90 0 min 0 lux 0,00 min 13,6 C 12,6 C
05.06.2011 01:16 15,7 C 88 % 1012 hPa 0,3 l/m 16,0 km/h (3 Bft) O-NO45 70 0 min 0 lux 15,00 min 13,7 C 11,7 C
05.06.2011 01:31 15,6 C 89 % 1012 hPa 0,3 l/m 17,5 km/h (3 Bft) O-NO45 65 0 min 0 lux 15,00 min 13,8 C 11,2 C
05.06.2011 01:46 15,5 C 89 % 1012 hPa 0,6 l/m 18,3 km/h (3 Bft) O-NO22.5 60 0 min 0 lux 15,00 min 13,7 C 10,8 C
05.06.2011 02:01 15,4 C 89 % 1012 hPa 0,0 l/m 10,0 km/h (2 Bft) O 90 0 min 0 lux 0,00 min 13,6 C 13,6 C
05.06.2011 02:16 15,2 C 90 % 1011 hPa 0,3 l/m 11,5 km/h (2 Bft) O-NO22.5 70 0 min 0 lux 15,00 min 13,6 C 12,7 C
05.06.2011 02:31 15,0 C 90 % 1011 hPa 0,9 l/m 9,4 km/h (2 Bft) N-NO 25 0 min 0 lux 15,00 min 13,4 C 13,4 C
05.06.2011 02:46 15,0 C 90 % 1011 hPa 0,0 l/m 0,0 km/h (0 Bft) N-NO 25 0 min 0 lux 0,00 min 13,4 C 15,0 C
05.06.2011 03:01 14,9 C 90 % 1011 hPa 0,0 l/m 8,3 km/h (2 Bft) N-NO 25 0 min 0 lux 0,00 min 13,3 C 13,8 C
05.06.2011 03:16 14,8 C 90 % 1010 hPa 0,0 l/m 11,0 km/h (2 Bft) N-NO 25 0 min 0 lux 0,00 min 13,2 C 12,5 C
05.06.2011 03:31 14,8 C 90 % 1010 hPa 0,0 l/m 0,0 km/h (0 Bft) N-NO 25 0 min 0 lux 0,00 min 13,2 C 14,8 C
05.06.2011 03:46 14,8 C 90 % 1010 hPa 0,3 l/m 0,0 km/h (0 Bft) N-NO 25 0 min 0 lux 15,00 min 13,2 C 14,8 C
05.06.2011 04:01 14,8 C 91 % 1010 hPa 0,6 l/m 5,8 km/h (2 Bft) N-NO 25 0 min 0 lux 15,00 min 13,3 C 14,8 C
05.06.2011 04:16 14,8 C 92 % 1010 hPa 3,3 l/m 10,5 km/h (2 Bft) N-NO 25 0 min 0 lux 15,00 min 13,5 C 12,7 C
05.06.2011 04:31 14,7 C 93 % 1010 hPa 0,3 l/m 11,7 km/h (2 Bft) N-NO 25 0 min 0 lux 15,00 min 13,6 C 12,0 C
05.06.2011 04:46 14,7 C 94 % 1010 hPa 0,3 l/m 15,1 km/h (3 Bft) NO22.5 40 0 min 0 lux 15,00 min 13,7 C 10,8 C
05.06.2011 05:01 14,6 C 93 % 1010 hPa 0,0 l/m 9,8 km/h (2 Bft) O-NO45 65 0 min 0 lux 0,00 min 13,5 C 12,8 C
05.06.2011 05:16 14,4 C 93 % 1010 hPa 0,0 l/m 0,0 km/h (0 Bft) O-SO 105 0 min 73 lux 0,00 min 13,3 C 14,4 C
05.06.2011 05:31 14,4 C 93 % 1010 hPa 0,0 l/m 0,0 km/h (0 Bft) O-SO 105 0 min 387 lux 0,00 min 13,3 C 14,4 C
05.06.2011 05:46 14,4 C 93 % 1010 hPa 0,0 l/m 0,0 km/h (0 Bft) O-SO 105 0 min 897 lux 0,00 min 13,3 C 14,4 C
05.06.2011 06:01 14,3 C 93 % 1010 hPa 0,0 l/m 0,0 km/h (0 Bft) O-SO 105 0 min 2,41 klux 0,00 min 13,2 C 14,3 C
05.06.2011 06:16 14,2 C 92 % 1010 hPa 0,0 l/m 0,0 km/h (0 Bft) O-SO 105 0 min 4,41 klux 0,00 min 12,9 C 14,2 C
05.06.2011 06:31 14,2 C 93 % 1010 hPa 0,0 l/m 0,0 km/h (0 Bft) O-SO 105 0 min 5,56 klux 0,00 min 13,1 C 14,2 C
05.06.2011 06:46 14,4 C 93 % 1010 hPa 0,0 l/m 0,0 km/h (0 Bft) O-SO 105 0 min 8,17 klux 0,00 min 13,3 C 14,4 C
05.06.2011 07:01 14,6 C 93 % 1009 hPa 0,0 l/m 0,0 km/h (0 Bft) O-SO 105 0 min 9,6 klux 0,00 min 13,5 C 14,6 C
05.06.2011 07:16 14,8 C 92 % 1009 hPa 0,0 l/m 0,0 km/h (0 Bft) O-SO 105 0 min 8,89 klux 0,00 min 13,5 C 14,8 C
05.06.2011 07:31 15,1 C 92 % 1009 hPa 0,0 l/m 0,7 km/h (0 Bft) O-SO 105 0 min 19,1 klux 0,00 min 13,8 C 15,1 C
05.06.2011 07:46 15,4 C 92 % 1009 hPa 0,0 l/m 0,9 km/h (0 Bft) O-SO 105 0 min 22,4 klux 0,00 min 14,1 C 15,4 C
05.06.2011 08:01 15,8 C 91 % 1009 hPa 0,0 l/m 0,0 km/h (0 Bft) O-SO 105 0 min 36,0 klux 0,00 min 14,3 C 15,8 C
05.06.2011 08:16 17,3 C 90 % 1009 hPa 0,0 l/m 0,0 km/h (0 Bft) O-SO 105 0 min 36,7 klux 0,00 min 15,6 C 17,3 C
05.06.2011 08:31 18,6 C 86 % 1009 hPa 0,0 l/m 0,0 km/h (0 Bft) O-SO 105 0 min 44,1 klux 0,00 min 16,2 C 18,6 C
05.06.2011 08:46 19,3 C 81 % 1009 hPa 0,0 l/m 0,0 km/h (0 Bft) O-SO 105 0 min 46,6 klux 0,00 min 16,0 C 19,3 C
05.06.2011 09:01 20,4 C 80 % 1009 hPa 0,0 l/m 6,1 km/h (2 Bft) O-SO 105 0 min 50,9 klux 0,00 min 16,8 C 20,4 C
05.06.2011 09:16 20,9 C 76 % 1009 hPa 0,0 l/m 6,1 km/h (2 Bft) O-SO 105 0 min 54,2 klux 0,00 min 16,5 C 20,9 C
05.06.2011 09:31 21,0 C 77 % 1009 hPa 0,0 l/m 8,3 km/h (2 Bft) O-SO 105 0 min 57,9 klux 0,00 min 16,8 C 20,3 C
05.06.2011 09:46 21,8 C 76 % 1009 hPa 0,0 l/m 5,2 km/h (1 Bft) O-SO 105 15 min 63,3 klux 0,00 min 17,4 C 21,8 C
05.06.2011 10:01 22,4 C 75 % 1009 hPa 0,0 l/m 8,2 km/h (2 Bft) O-SO 105 15 min 64,3 klux 0,00 min 17,7 C 21,8 C
05.06.2011 10:16 23,5 C 73 % 1009 hPa 0,0 l/m 0,0 km/h (0 Bft) O-SO 105 15 min 77,8 klux 0,00 min 18,4 C 23,5 C
05.06.2011 10:30 23,4 C 71 % 1009 hPa 0,0 l/m 1,4 km/h (1 Bft) O-SO 105 14 min 71,7 klux 0,00 min 17,8 C 23,4 C
05.06.2011 10:46 23,2 C 72 % 1009 hPa 0,0 l/m 0,0 km/h (0 Bft) O-SO 105 0 min 40,6 klux 0,00 min 17,9 C 23,2 C
05.06.2011 11:01 22,9 C 72 % 1009 hPa 0,0 l/m 0,0 km/h (0 Bft) O-SO 105 0 min 33,2 klux 0,00 min 17,6 C 22,9 C
05.06.2011 11:16 22,8 C 72 % 1009 hPa 0,0 l/m 0,3 km/h (0 Bft) O-SO 110 0 min 58,6 klux 0,00 min 17,5 C 22,8 C
05.06.2011 11:31 23,4 C 73 % 1008 hPa 0,0 l/m 7,2 km/h (2 Bft) SW67.5 215 15 min 84,2 klux 0,00 min 18,3 C 23,2 C
05.06.2011 11:46 25,0 C 69 % 1008 hPa 0,0 l/m 10,5 km/h (2 Bft) S-SO45 165 15 min 88,3 klux 0,00 min 18,9 C 24,1 C
05.06.2011 12:01 24,9 C 67 % 1009 hPa 0,0 l/m 8,9 km/h (2 Bft) S-SW22.5 195 15 min 80,3 klux 0,00 min 18,3 C 24,3 C
05.06.2011 12:15 25,1 C 67 % 1009 hPa 0,0 l/m 10,3 km/h (2 Bft) S-SO22.5 150 14 min 95,6 klux 0,00 min 18,5 C 24,2 C
05.06.2011 12:31 25,1 C 67 % 1008 hPa 0,0 l/m 11,6 km/h (2 Bft) S22.5 175 16 min 92,3 klux 0,00 min 18,5 C 24,0 C
05.06.2011 12:46 25,3 C 66 % 1008 hPa 0,0 l/m 15,9 km/h (3 Bft) S-SO45 160 15 min 95,1 klux 0,00 min 18,5 C 23,5 C
05.06.2011 13:01 25,2 C 66 % 1008 hPa 0,0 l/m 13,9 km/h (3 Bft) S22.5 170 15 min 103 klux 0,00 min 18,4 C 23,7 C
05.06.2011 13:16 25,4 C 65 % 1008 hPa 0,0 l/m 14,5 km/h (3 Bft) S45 175 15 min 100 klux 0,00 min 18,3 C 23,9 C
05.06.2011 13:31 25,3 C 65 % 1008 hPa 0,0 l/m 17,7 km/h (3 Bft) S22.5 170 15 min 100 klux 0,00 min 18,2 C 23,3 C
05.06.2011 13:46 25,1 C 65 % 1008 hPa 0,0 l/m 20,0 km/h (4 Bft) S-SW22.5 200 15 min 100 klux 0,00 min 18,0 C 22,8 C
05.06.2011 14:00 24,9 C 65 % 1008 hPa 0,0 l/m 20,3 km/h (4 Bft) S45 170 14 min 101 klux 0,00 min 17,9 C 22,5 C
05.06.2011 14:16 24,4 C 65 % 1007 hPa 0,0 l/m 21,5 km/h (4 Bft) S45 180 16 min 107 klux 0,00 min 17,4 C 21,7 C
05.06.2011 14:31 24,9 C 65 % 1007 hPa 0,0 l/m 21,3 km/h (4 Bft) SW45 215 15 min 105 klux 0,00 min 17,9 C 22,4 C
05.06.2011 14:46 24,6 C 64 % 1007 hPa 0,0 l/m 23,5 km/h (4 Bft) S45 190 15 min 102 klux 0,00 min 17,3 C 21,8 C
05.06.2011 15:01 24,1 C 65 % 1007 hPa 0,0 l/m 25,9 km/h (4 Bft) SW45 220 15 min 96,2 klux 0,00 min 17,1 C 20,9 C
05.06.2011 15:16 24,1 C 67 % 1007 hPa 0,0 l/m 27,3 km/h (4 Bft) SW67.5 235 15 min 96,4 klux 0,00 min 17,6 C 20,7 C
05.06.2011 15:30 24,4 C 64 % 1007 hPa 0,0 l/m 26,0 km/h (4 Bft) W22.5 260 14 min 96,1 klux 0,00 min 17,1 C 21,3 C
05.06.2011 15:46 24,2 C 65 % 1007 hPa 0,0 l/m 19,6 km/h (3 Bft) W-SW45 240 16 min 85,4 klux 0,00 min 17,2 C 21,7 C
05.06.2011 16:01 24,2 C 65 % 1007 hPa 0,0 l/m 19,8 km/h (3 Bft) W-SW67.5 255 15 min 86,9 klux 0,00 min 17,2 C 21,7 C
05.06.2011 16:16 24,2 C 64 % 1007 hPa 0,0 l/m 8,7 km/h (2 Bft) SW 215 15 min 83,0 klux 0,00 min 16,9 C 23,6 C
05.06.2011 16:31 24,3 C 62 % 1007 hPa 0,0 l/m 23,3 km/h (4 Bft) W-SW22.5 250 15 min 73,5 klux 0,00 min 16,5 C 21,4 C
05.06.2011 16:46 24,2 C 62 % 1006 hPa 0,0 l/m 19,1 km/h (3 Bft) SW67.5 215 15 min 78,9 klux 0,00 min 16,4 C 21,7 C
05.06.2011 17:01 24,6 C 61 % 1006 hPa 0,0 l/m 10,8 km/h (2 Bft) SW22.5 220 15 min 64,8 klux 0,00 min 16,6 C 23,6 C
05.06.2011 17:15 24,7 C 60 % 1006 hPa 0,0 l/m 11,4 km/h (2 Bft) S-SO 150 0 min 52,4 klux 0,00 min 16,4 C 23,6 C
05.06.2011 17:31 24,4 C 59 % 1006 hPa 0,0 l/m 7,5 km/h (2 Bft) S-SW 200 0 min 41,3 klux 0,00 min 15,9 C 24,1 C
05.06.2011 17:46 23,9 C 62 % 1006 hPa 0,0 l/m 0,4 km/h (0 Bft) S-SW 205 0 min 22,7 klux 0,00 min 16,2 C 23,9 C
05.06.2011 18:01 22,0 C 61 % 1006 hPa 0,0 l/m 0,0 km/h (0 Bft) S-SW 200 0 min 11,4 klux 0,00 min 14,1 C 22,0 C
05.06.2011 18:16 19,7 C 67 % 1007 hPa 0,0 l/m 39,2 km/h (6 Bft) W45 275 0 min 12,0 klux 0,00 min 13,4 C 13,3 C
05.06.2011 18:31 18,8 C 70 % 1007 hPa 0,0 l/m 18,1 km/h (3 Bft) W45 275 0 min 18,1 klux 0,00 min 13,2 C 15,1 C
05.06.2011 18:46 16,7 C 72 % 1007 hPa 0,3 l/m 23,6 km/h (4 Bft) N-NW45 335 0 min 4,69 klux 15,00 min 11,6 C 11,2 C
05.06.2011 19:01 16,0 C 75 % 1006 hPa 0,0 l/m 0,7 km/h (0 Bft) NW 315 0 min 7,00 klux 0,00 min 11,6 C 16,0 C
05.06.2011 19:16 15,9 C 78 % 1006 hPa 0,0 l/m 0,0 km/h (0 Bft) NW 320 0 min 21,7 klux 0,00 min 12,1 C 15,9 C
05.06.2011 19:31 16,2 C 78 % 1006 hPa 0,0 l/m 0,0 km/h (0 Bft) O-NO 70 0 min 23,9 klux 0,00 min 12,4 C 16,2 C
05.06.2011 19:46 16,5 C 77 % 1006 hPa 0,0 l/m 0,0 km/h (0 Bft) O-NO 70 0 min 13,4 klux 0,00 min 12,5 C 16,5 C
05.06.2011 20:01 16,3 C 77 % 1006 hPa 0,0 l/m 0,0 km/h (0 Bft) O-NO 70 0 min 5,70 klux 0,00 min 12,3 C 16,3 C
05.06.2011 20:16 16,0 C 78 % 1006 hPa 0,0 l/m 0,0 km/h (0 Bft) O-NO 70 0 min 2,37 klux 0,00 min 12,2 C 16,0 C
05.06.2011 20:30 15,6 C 79 % 1006 hPa 0,0 l/m 0,0 km/h (0 Bft) O-NO 70 0 min 2,25 klux 0,00 min 12,0 C 15,6 C
05.06.2011 20:46 15,5 C 80 % 1006 hPa 0,0 l/m 0,0 km/h (0 Bft) O-NO 70 0 min 3,16 klux 0,00 min 12,1 C 15,5 C
05.06.2011 21:01 15,4 C 81 % 1006 hPa 0,0 l/m 0,0 km/h (0 Bft) O-NO 70 0 min 3,13 klux 0,00 min 12,2 C 15,4 C
05.06.2011 21:16 15,4 C 82 % 1006 hPa 0,0 l/m 0,0 km/h (0 Bft) O-NO 70 0 min 2,08 klux 0,00 min 12,3 C 15,4 C
05.06.2011 21:31 15,0 C 84 % 1005 hPa 0,0 l/m 0,0 km/h (0 Bft) O-NO 70 0 min 1,65 klux 0,00 min 12,3 C 15,0 C
05.06.2011 21:46 14,8 C 85 % 1005 hPa 0,0 l/m 0,0 km/h (0 Bft) O-NO 70 0 min 784 lux 0,00 min 12,3 C 14,8 C
05.06.2011 22:01 14,4 C 87 % 1005 hPa 0,0 l/m 0,0 km/h (0 Bft) O-NO 70 0 min 266 lux 0,00 min 12,3 C 14,4 C
05.06.2011 22:15 14,2 C 87 % 1005 hPa 0,0 l/m 0,0 km/h (0 Bft) O-NO 70 0 min 16 lux 0,00 min 12,1 C 14,2 C
05.06.2011 22:31 14,2 C 87 % 1005 hPa 0,0 l/m 0,0 km/h (0 Bft) O-NO 70 0 min 0 lux 0,00 min 12,1 C 14,2 C
05.06.2011 22:46 14,2 C 88 % 1006 hPa 0,0 l/m 0,0 km/h (0 Bft) O-NO 70 0 min 0 lux 0,00 min 12,2 C 14,2 C
05.06.2011 23:01 14,2 C 88 % 1006 hPa 0,0 l/m 0,3 km/h (0 Bft) O-NO 70 0 min 0 lux 0,00 min 12,2 C 14,2 C
05.06.2011 23:16 14,3 C 88 % 1006 hPa 0,6 l/m 0,0 km/h (0 Bft) O-NO 70 0 min 0 lux 15,00 min 12,3 C 14,3 C
05.06.2011 23:31 14,3 C 89 % 1006 hPa 0,0 l/m 0,0 km/h (0 Bft) O-NO 70 0 min 0 lux 0,00 min 12,5 C 14,3 C
05.06.2011 23:46 14,3 C 89 % 1006 hPa 0,3 l/m 0,0 km/h (0 Bft) SW22.5 225 0 min 0 lux 15,00 min 12,5 C 14,3 C
_ Min-Zeit 06:16 17:31 21:31 - 02:46 - - - - - 19:01 04:46
Minimum _ 14,2 C 59 % 1005 hPa - 0,0 km/h (0 Bft) - - - - - 11,6 C 10,8 C
_ Max-Zeit 13:16 04:46 00:00 04:16 18:16 - - 12:31 14:16 01:16 11:46 12:01
Maximum _ 25,4 C 94 % 1012 hPa 3,3 l/m 39,2 km/h
W (6 Bft)
- - 16 min 107 klux 15,00 min 18,9 C 24,3 C
Durchschnitt _ 18,7 C 79 % 1008 hPa #8,4 l/m 7,8 km/h (2 Bft) S - #6:44 h 33,1 klux #3:15 h 14,8 C 17,6 C